Time;durP1;ratioP1;P1;durP2;ratioP2;P2;SDS_P1;SDS_P2;PMS_P1;PMS_P2;Temp;Humidity;BMP_temperature;BMP_pressure;BME280_temperature;BME280_humidity;BME280_pressure;Samples;Min_cycle;Max_cycle;Signal;HPM_P1;HPM_P2
2021/07/09 00:01:28;;;;;;;14.40;7.40;;;;;;;;;;4996328;28;20029;-92
2021/07/09 00:04:03;;;;;;;7.63;5.30;;;;;;;;;;4979363;28;20031;-95
2021/07/09 00:06:38;;;;;;;9.90;6.80;;;;;;;;;;4979618;28;20034;-93
2021/07/09 00:09:14;;;;;;;10.90;6.60;;;;;;;;;;4979574;28;20117;-92
2021/07/09 00:11:57;;;;;;;9.52;7.20;;;;;;;;;;4980157;28;20113;-93
2021/07/09 00:14:34;;;;;;;11.75;6.82;;;;;;;;;;4995711;28;20026;-93
2021/07/09 00:17:00;;;;;;;8.55;5.22;;;;;;;;;;5021115;28;20117;-92
2021/07/09 00:19:26;;;;;;;12.75;6.68;;;;;;;;;;5019809;28;20471;-93
2021/07/09 00:24:19;;;;;;;9.75;6.57;;;;;;;;;;5055127;28;20045;-93
2021/07/09 00:26:54;;;;;;;10.90;7.63;;;;;;;;;;5038582;28;20024;-92
2021/07/09 00:29:29;;;;;;;8.13;4.35;;;;;;;;;;5038774;28;20031;-92
2021/07/09 00:31:55;;;;;;;10.38;5.03;;;;;;;;;;5038561;28;20025;-93
2021/07/09 00:34:21;;;;;;;9.60;6.88;;;;;;;;;;5038603;28;20027;-91
2021/07/09 00:36:53;;;;;;;10.52;6.75;;;;;;;;;;5038476;28;20029;-92
2021/07/09 00:39:22;;;;;;;8.45;4.38;;;;;;;;;;5038431;28;20358;-92
2021/07/09 00:41:47;;;;;;;9.73;7.03;;;;;;;;;;5038520;28;20032;-92
2021/07/09 00:44:22;;;;;;;9.40;3.95;;;;;;;;;;5038514;28;20370;-93
2021/07/09 00:46:50;;;;;;;9.02;6.05;;;;;;;;;;5038426;28;20021;-92
2021/07/09 00:49:20;;;;;;;10.75;6.63;;;;;;;;;;5038369;28;20025;-92
2021/07/09 00:51:49;;;;;;;13.80;6.32;;;;;;;;;;5038285;28;20489;-92
2021/07/09 00:54:21;;;;;;;16.85;6.50;;;;;;;;;;5037786;28;20056;-92
2021/07/09 00:56:47;;;;;;;9.95;6.60;;;;;;;;;;5038149;28;20063;-92
2021/07/09 00:59:25;;;;;;;8.85;6.18;;;;;;;;;;5038280;28;20025;-92
2021/07/09 01:01:59;;;;;;;10.85;3.95;;;;;;;;;;5038193;28;20416;-93
2021/07/09 01:04:33;;;;;;;12.13;6.93;;;;;;;;;;5038170;28;20056;-92
2021/07/09 01:06:59;;;;;;;11.32;6.85;;;;;;;;;;5037984;28;20025;-92
2021/07/09 01:09:31;;;;;;;13.70;7.90;;;;;;;;;;5037895;28;20036;-92
2021/07/09 01:12:06;;;;;;;11.07;5.88;;;;;;;;;;5037835;28;20025;-91
2021/07/09 01:14:47;;;;;;;12.43;6.57;;;;;;;;;;5037887;28;20032;-92
2021/07/09 01:17:20;;;;;;;11.23;5.20;;;;;;;;;;5037843;28;20494;-93
2021/07/09 01:19:46;;;;;;;13.82;7.35;;;;;;;;;;5037909;28;20488;-92
2021/07/09 01:22:11;;;;;;;8.60;6.43;;;;;;;;;;5036983;28;20025;-93
2021/07/09 01:24:38;;;;;;;9.65;6.88;;;;;;;;;;5037550;28;20025;-92
2021/07/09 01:27:24;;;;;;;8.70;6.38;;;;;;;;;;5037382;28;20036;-92
2021/07/09 01:29:53;;;;;;;12.18;7.28;;;;;;;;;;5063868;22;20065;-93
2021/07/09 01:32:22;;;;;;;7.70;5.30;;;;;;;;;;4998433;28;20022;-91
2021/07/09 01:34:47;;;;;;;15.05;9.38;;;;;;;;;;5015528;28;20032;-91
2021/07/09 01:37:19;;;;;;;7.72;5.25;;;;;;;;;;5065518;23;20012;-93
2021/07/09 01:39:48;;;;;;;10.40;6.95;;;;;;;;;;5033506;28;20142;-91
2021/07/09 01:42:26;;;;;;;9.82;6.68;;;;;;;;;;5033736;28;20049;-91
2021/07/09 01:44:55;;;;;;;7.63;3.80;;;;;;;;;;5034024;28;20396;-94
2021/07/09 01:47:20;;;;;;;12.57;6.63;;;;;;;;;;5033625;28;20503;-91
2021/07/09 01:49:57;;;;;;;12.13;7.07;;;;;;;;;;5033583;28;20022;-93
2021/07/09 01:52:25;;;;;;;10.15;4.03;;;;;;;;;;5034945;28;20025;-91
2021/07/09 01:55:01;;;;;;;10.10;6.28;;;;;;;;;;5033610;28;20029;-91
2021/07/09 01:57:33;;;;;;;8.27;5.20;;;;;;;;;;5142986;22;20057;-91
2021/07/09 02:00:00;;;;;;;9.60;6.30;;;;;;;;;;5033560;28;20046;-92
2021/07/09 02:02:26;;;;;;;9.35;7.35;;;;;;;;;;5033652;28;20045;-93
2021/07/09 02:04:56;;;;;;;10.32;6.50;;;;;;;;;;5033363;28;20140;-92
2021/07/09 02:07:55;;;;;;;16.17;7.50;;;;;;;;;;5126699;22;20057;-92
2021/07/09 02:10:37;;;;;;;12.57;7.22;;;;;;;;;;5001396;28;20068;-92
2021/07/09 02:13:10;;;;;;;10.02;5.07;;;;;;;;;;5033356;28;20030;-92
2021/07/09 02:15:38;;;;;;;13.77;4.40;;;;;;;;;;5033732;28;20033;-93
2021/07/09 02:18:06;;;;;;;7.53;5.55;;;;;;;;;;5034434;28;20527;-93
2021/07/09 02:20:50;;;;;;;9.35;7.60;;;;;;;;;;5033403;28;20065;-92
2021/07/09 02:23:16;;;;;;;8.40;4.50;;;;;;;;;;5033130;28;20083;-92
2021/07/09 02:25:43;;;;;;;13.35;6.63;;;;;;;;;;5033070;28;20496;-95
2021/07/09 02:28:09;;;;;;;13.02;5.05;;;;;;;;;;5033185;28;20083;-92
2021/07/09 02:30:44;;;;;;;9.75;4.88;;;;;;;;;;5032874;28;20032;-92
2021/07/09 02:33:10;;;;;;;7.55;4.65;;;;;;;;;;5032925;28;20030;-93
2021/07/09 02:35:40;;;;;;;10.15;6.93;;;;;;;;;;5032907;28;20504;-94
2021/07/09 02:38:07;;;;;;;9.68;6.03;;;;;;;;;;5033174;28;20021;-92
2021/07/09 02:40:41;;;;;;;9.45;5.25;;;;;;;;;;5033096;28;20026;-93
2021/07/09 02:43:17;;;;;;;10.77;6.63;;;;;;;;;;5033436;28;20428;-92
2021/07/09 02:45:42;;;;;;;9.05;4.50;;;;;;;;;;5034034;28;20083;-93
2021/07/09 02:48:08;;;;;;;10.10;6.70;;;;;;;;;;5034438;28;20416;-93
2021/07/09 02:50:34;;;;;;;11.20;7.70;;;;;;;;;;5033202;28;20025;-93
2021/07/09 02:53:20;;;;;;;9.98;6.47;;;;;;;;;;5032627;28;20045;-93
2021/07/09 02:55:55;;;;;;;9.52;5.85;;;;;;;;;;5032226;28;20040;-92
2021/07/09 02:58:24;;;;;;;15.32;6.50;;;;;;;;;;5032608;28;20034;-94
2021/07/09 03:01:19;;;;;;;11.23;8.15;;;;;;;;;;5033936;28;20025;-93
2021/07/09 03:06:21;;;;;;;7.88;6.40;;;;;;;;;;5049804;22;20088;-92
2021/07/09 03:08:50;;;;;;;10.50;6.60;;;;;;;;;;5032837;28;20049;-94
2021/07/09 03:11:17;;;;;;;9.77;3.90;;;;;;;;;;5032412;28;20055;-92
2021/07/09 03:13:47;;;;;;;12.07;3.05;;;;;;;;;;5032786;28;20381;-94
2021/07/09 03:16:12;;;;;;;8.32;3.40;;;;;;;;;;5032899;28;20366;-93
2021/07/09 03:18:41;;;;;;;17.17;5.82;;;;;;;;;;5032158;28;20025;-93
2021/07/09 03:21:07;;;;;;;7.55;5.57;;;;;;;;;;5032490;28;20106;-94
2021/07/09 03:23:32;;;;;;;10.55;6.22;;;;;;;;;;5032334;28;20477;-94
2021/07/09 03:26:01;;;;;;;12.00;6.63;;;;;;;;;;5032188;28;20171;-93
2021/07/09 03:28:29;;;;;;;10.43;6.55;;;;;;;;;;5032311;28;20542;-94
2021/07/09 03:30:55;;;;;;;11.65;4.78;;;;;;;;;;5032348;28;20025;-93
2021/07/09 03:33:21;;;;;;;8.48;6.85;;;;;;;;;;5032521;28;20080;-92
2021/07/09 03:36:11;;;;;;;8.63;6.20;;;;;;;;;;5032332;28;20128;-94
2021/07/09 03:38:37;;;;;;;16.05;6.45;;;;;;;;;;5032389;28;20029;-92
2021/07/09 03:41:02;;;;;;;10.20;6.65;;;;;;;;;;5032475;28;20121;-92
2021/07/09 03:43:28;;;;;;;9.40;7.03;;;;;;;;;;5032373;28;20128;-93
2021/07/09 03:46:10;;;;;;;11.73;6.22;;;;;;;;;;5032475;28;20056;-96
2021/07/09 03:48:39;;;;;;;11.23;8.63;;;;;;;;;;5031875;28;20021;-94
2021/07/09 03:51:08;;;;;;;10.73;5.78;;;;;;;;;;5032359;28;20029;-93
2021/07/09 03:53:35;;;;;;;12.07;5.90;;;;;;;;;;5033618;28;20025;-93
2021/07/09 03:56:10;;;;;;;8.48;6.57;;;;;;;;;;5032039;28;20080;-93
2021/07/09 03:58:39;;;;;;;6.72;5.35;;;;;;;;;;5032435;28;20052;-93
2021/07/09 04:01:05;;;;;;;8.93;5.53;;;;;;;;;;5032639;28;20018;-94
2021/07/09 04:03:58;;;;;;;8.43;6.38;;;;;;;;;;5033189;28;20025;-94
2021/07/09 04:06:24;;;;;;;10.48;7.20;;;;;;;;;;5032965;28;20046;-93
2021/07/09 04:08:49;;;;;;;10.15;5.88;;;;;;;;;;5032087;28;20037;-93
2021/07/09 04:14:10;;;;;;;9.82;4.85;;;;;;;;;;5030876;28;20076;-92
2021/07/09 04:16:39;;;;;;;8.43;6.15;;;;;;;;;;5032428;28;20033;-91
2021/07/09 04:19:04;;;;;;;7.88;6.15;;;;;;;;;;5031774;28;20112;-93
2021/07/09 04:21:30;;;;;;;9.68;6.45;;;;;;;;;;5033373;28;20503;-90
2021/07/09 04:23:56;;;;;;;9.18;5.90;;;;;;;;;;5031726;28;20033;-89
2021/07/09 04:26:22;;;;;;;8.63;4.35;;;;;;;;;;5031846;28;20032;-90
2021/07/09 04:29:07;;;;;;;8.73;5.93;;;;;;;;;;5033382;28;20108;-93
2021/07/09 04:31:38;;;;;;;9.65;6.78;;;;;;;;;;5035746;28;20037;-93
2021/07/09 04:34:04;;;;;;;10.95;6.47;;;;;;;;;;5035629;28;20596;-92
2021/07/09 04:36:36;;;;;;;14.75;7.40;;;;;;;;;;5035164;28;20120;-92
2021/07/09 04:39:04;;;;;;;15.20;7.18;;;;;;;;;;5036448;28;20021;-91
2021/07/09 04:41:40;;;;;;;12.52;6.65;;;;;;;;;;5035175;28;20029;-93
2021/07/09 04:44:06;;;;;;;9.45;6.93;;;;;;;;;;5036162;28;20022;-91
2021/07/09 04:46:43;;;;;;;12.02;6.38;;;;;;;;;;5034894;28;20044;-91
2021/07/09 04:49:15;;;;;;;8.00;6.45;;;;;;;;;;5035860;28;20029;-91
2021/07/09 04:51:50;;;;;;;8.65;5.63;;;;;;;;;;5034509;28;20033;-91
2021/07/09 04:54:16;;;;;;;8.80;7.38;;;;;;;;;;5109556;22;20015;-91
2021/07/09 04:56:42;;;;;;;8.68;6.65;;;;;;;;;;5035720;28;20029;-91
2021/07/09 04:59:07;;;;;;;13.73;7.40;;;;;;;;;;5034306;28;20030;-90
2021/07/09 05:01:33;;;;;;;11.32;8.35;;;;;;;;;;5034455;28;20028;-91
2021/07/09 05:03:59;;;;;;;11.88;7.28;;;;;;;;;;5035785;28;20026;-91
2021/07/09 05:06:28;;;;;;;11.60;7.22;;;;;;;;;;5035571;28;20021;-90
2021/07/09 05:08:54;;;;;;;12.48;7.78;;;;;;;;;;5034215;28;20022;-89
2021/07/09 05:11:19;;;;;;;12.40;6.93;;;;;;;;;;5034610;28;20031;-93
2021/07/09 05:22:44;;;;;;;9.32;7.00;;;;;;;;;;5237534;22;20052;-92
2021/07/09 05:31:23;;;;;;;10.05;7.63;;;;;;;;;;5082143;22;20134;-91
2021/07/09 05:34:19;;;;;;;;;;;;;;;;;;;;;
2021/07/09 05:38:05;;;;;;;;;;;;;;;;;;;;;
2021/07/09 05:40:31;;;;;;;13.05;8.43;;;;;;;;;;4973868;28;20034;-89
2021/07/09 05:42:57;;;;;;;11.18;7.20;;;;;;;;;;4974512;28;20138;-90
2021/07/09 05:45:22;;;;;;;8.60;5.45;;;;;;;;;;4974571;28;20372;-91
2021/07/09 05:47:48;;;;;;;11.82;8.35;;;;;;;;;;4973834;28;20047;-92
2021/07/09 05:54:25;;;;;;;6.95;4.78;;;;;;;;;;4973853;28;20112;-90
2021/07/09 05:59:26;;;;;;;9.55;7.25;;;;;;;;;;5371929;22;20130;-91
2021/07/09 06:01:52;;;;;;;9.63;6.47;;;;;;;;;;5073658;28;20464;-92
2021/07/09 06:04:37;;;;;;;8.55;6.85;;;;;;;;;;5073040;28;20021;-90
2021/07/09 06:10:37;;;;;;;10.02;7.40;;;;;;;;;;5044844;22;20071;-90
2021/07/09 06:13:25;;;;;;;8.95;6.82;;;;;;;;;;5056145;28;20028;-89
2021/07/09 06:16:48;;;;;;;9.82;7.70;;;;;;;;;;5063145;22;20060;-89
2021/07/09 06:19:24;;;;;;;;;;;;;;;;;;;;;
2021/07/09 06:21:53;;;;;;;9.20;7.22;;;;;;;;;;5004945;28;20037;-91
2021/07/09 06:24:19;;;;;;;8.75;6.95;;;;;;;;;;4992617;28;20030;-88
2021/07/09 06:26:44;;;;;;;9.70;5.13;;;;;;;;;;4992540;28;20089;-88
2021/07/09 06:29:10;;;;;;;9.43;6.53;;;;;;;;;;4991120;28;20036;-88
2021/07/09 06:31:36;;;;;;;9.95;6.88;;;;;;;;;;5012124;28;20034;-88
2021/07/09 06:34:03;;;;;;;8.38;6.07;;;;;;;;;;4992785;28;20121;-88
2021/07/09 06:36:28;;;;;;;7.32;5.47;;;;;;;;;;5009905;28;20037;-87
2021/07/09 06:39:00;;;;;;;7.88;3.83;;;;;;;;;;4995709;28;20049;-89
2021/07/09 06:41:26;;;;;;;6.97;4.38;;;;;;;;;;5012095;28;20034;-88
2021/07/09 06:43:52;;;;;;;8.52;4.28;;;;;;;;;;4995490;28;20581;-88
2021/07/09 06:46:18;;;;;;;10.13;4.22;;;;;;;;;;4995406;28;20038;-89
2021/07/09 06:48:47;;;;;;;8.07;3.67;;;;;;;;;;5011984;28;20030;-88
2021/07/09 06:51:12;;;;;;;7.93;5.05;;;;;;;;;;4995487;28;20037;-88
2021/07/09 06:53:39;;;;;;;9.32;6.07;;;;;;;;;;5057345;28;20036;-88
2021/07/09 06:56:05;;;;;;;7.75;3.92;;;;;;;;;;5055958;28;20035;-88
2021/07/09 06:58:30;;;;;;;8.38;6.07;;;;;;;;;;5074683;28;20028;-93
2021/07/09 07:00:57;;;;;;;6.47;3.80;;;;;;;;;;5077559;28;20104;-91
2021/07/09 07:03:23;;;;;;;13.63;4.10;;;;;;;;;;5078869;28;20031;-87
2021/07/09 07:05:48;;;;;;;7.88;6.30;;;;;;;;;;5081392;28;20024;-87
2021/07/09 07:08:45;;;;;;;8.32;3.40;;;;;;;;;;5082647;28;20036;-90
2021/07/09 07:11:10;;;;;;;6.75;3.30;;;;;;;;;;5056487;28;20067;-88
2021/07/09 07:13:53;;;;;;;6.30;3.22;;;;;;;;;;5056378;28;20078;-90
2021/07/09 07:16:22;;;;;;;7.93;3.08;;;;;;;;;;5073322;28;20442;-89
2021/07/09 07:18:48;;;;;;;7.18;3.03;;;;;;;;;;5055505;28;20086;-90
2021/07/09 07:21:13;;;;;;;7.03;2.88;;;;;;;;;;5073382;28;20357;-89
2021/07/09 07:23:39;;;;;;;6.20;2.22;;;;;;;;;;5073298;28;20537;-90
2021/07/09 07:26:05;;;;;;;7.85;2.78;;;;;;;;;;5073144;28;20100;-91
2021/07/09 07:28:30;;;;;;;7.13;3.00;;;;;;;;;;5055696;28;20476;-88
2021/07/09 07:30:56;;;;;;;9.45;3.20;;;;;;;;;;5055554;28;20025;-91
2021/07/09 07:33:22;;;;;;;6.07;3.08;;;;;;;;;;5055160;28;20020;-89
2021/07/09 07:35:48;;;;;;;4.40;2.47;;;;;;;;;;5073240;28;20032;-88
2021/07/09 07:38:14;;;;;;;5.63;3.95;;;;;;;;;;5055544;28;20036;-89
2021/07/09 07:40:40;;;;;;;6.25;3.05;;;;;;;;;;5073118;28;20043;-89
2021/07/09 07:43:06;;;;;;;7.45;2.97;;;;;;;;;;5055242;28;20494;-89
2021/07/09 07:45:33;;;;;;;6.05;2.47;;;;;;;;;;5073098;28;20017;-90
2021/07/09 07:47:59;;;;;;;6.18;3.00;;;;;;;;;;5055333;28;20476;-88
2021/07/09 07:50:26;;;;;;;6.25;2.95;;;;;;;;;;5073580;28;20071;-88
2021/07/09 07:52:55;;;;;;;4.32;1.33;;;;;;;;;;5073028;28;20449;-88
2021/07/09 07:55:27;;;;;;;7.60;1.83;;;;;;;;;;5073085;28;20029;-91
2021/07/09 07:57:52;;;;;;;3.88;1.27;;;;;;;;;;5073044;28;20503;-90
2021/07/09 08:00:19;;;;;;;3.65;2.80;;;;;;;;;;5055144;28;20029;-90
2021/07/09 08:02:44;;;;;;;3.88;1.77;;;;;;;;;;5072869;28;20029;-90
2021/07/09 08:05:11;;;;;;;8.65;1.45;;;;;;;;;;5074225;28;20036;-88
2021/07/09 08:07:36;;;;;;;9.88;3.88;;;;;;;;;;5058585;28;20116;-91
2021/07/09 08:10:03;;;;;;;3.63;1.48;;;;;;;;;;5058279;28;20452;-90
2021/07/09 08:12:29;;;;;;;4.65;3.47;;;;;;;;;;5058684;28;20123;-88
2021/07/09 08:14:55;;;;;;;6.10;1.33;;;;;;;;;;5058869;28;20108;-89
2021/07/09 08:17:20;;;;;;;3.63;0.70;;;;;;;;;;5058377;28;20033;-89
2021/07/09 08:19:46;;;;;;;7.00;3.15;;;;;;;;;;5058479;28;20031;-90
2021/07/09 08:22:12;;;;;;;7.03;1.45;;;;;;;;;;5058652;28;20024;-89
2021/07/09 08:24:44;;;;;;;4.55;1.08;;;;;;;;;;5058409;28;20063;-90
2021/07/09 08:27:09;;;;;;;5.10;2.90;;;;;;;;;;5058328;28;20085;-88
2021/07/09 08:29:35;;;;;;;5.72;3.90;;;;;;;;;;5058242;28;20029;-92
2021/07/09 08:32:01;;;;;;;5.28;3.97;;;;;;;;;;5076458;28;20036;-90
2021/07/09 08:34:26;;;;;;;5.95;3.80;;;;;;;;;;5076220;28;20032;-88
2021/07/09 08:36:52;;;;;;;4.70;2.65;;;;;;;;;;5058188;28;20026;-91
2021/07/09 08:39:18;;;;;;;6.55;4.07;;;;;;;;;;5058260;28;20483;-90
2021/07/09 08:41:45;;;;;;;6.38;4.28;;;;;;;;;;5076670;28;20036;-91
2021/07/09 08:44:38;;;;;;;4.25;1.40;;;;;;;;;;5075895;28;20070;-90
2021/07/09 08:47:15;;;;;;;;;;;;;;;;;;;;;
2021/07/09 08:49:41;;;;;;;5.80;2.85;;;;;;;;;;5075997;28;20021;-90
2021/07/09 08:52:16;;;;;;;6.68;5.97;;;;;;;;;;5057895;28;20107;-91
2021/07/09 08:54:45;;;;;;;7.10;4.43;;;;;;;;;;5058165;28;20055;-90
2021/07/09 08:57:12;;;;;;;6.80;5.20;;;;;;;;;;5058699;28;20056;-90
2021/07/09 08:59:38;;;;;;;6.32;4.43;;;;;;;;;;5058009;28;20031;-90
2021/07/09 09:02:04;;;;;;;4.68;2.10;;;;;;;;;;5057981;28;20111;-89
2021/07/09 09:04:31;;;;;;;6.35;4.55;;;;;;;;;;5057993;28;20111;-90
2021/07/09 09:07:09;;;;;;;7.05;3.08;;;;;;;;;;5057730;28;20506;-90
2021/07/09 09:09:40;;;;;;;4.93;2.08;;;;;;;;;;5075445;28;20059;-90
2021/07/09 09:12:08;;;;;;;6.80;4.13;;;;;;;;;;5075664;28;20017;-92
2021/07/09 09:14:39;;;;;;;9.50;3.75;;;;;;;;;;5075643;28;20426;-90
2021/07/09 09:17:24;;;;;;;6.90;3.58;;;;;;;;;;5074779;28;20036;-88
2021/07/09 09:20:27;;;;;;;10.35;3.78;;;;;;;;;;5075420;28;20047;-89
2021/07/09 09:22:58;;;;;;;6.38;5.78;;;;;;;;;;5018680;28;20043;-93
2021/07/09 09:25:26;;;;;;;11.45;5.95;;;;;;;;;;5057365;28;20024;-89
2021/07/09 09:28:31;;;;;;;6.72;4.85;;;;;;;;;;5057430;28;20086;-89
2021/07/09 09:30:58;;;;;;;8.18;3.50;;;;;;;;;;5057119;28;20107;-88
2021/07/09 09:33:31;;;;;;;6.28;2.42;;;;;;;;;;5057821;28;20059;-90
2021/07/09 09:35:57;;;;;;;7.28;2.60;;;;;;;;;;5057224;28;20028;-91
2021/07/09 09:38:29;;;;;;;6.88;3.50;;;;;;;;;;5075458;28;20108;-90
2021/07/09 09:41:05;;;;;;;5.80;2.00;;;;;;;;;;5075454;28;20037;-90
2021/07/09 09:43:32;;;;;;;5.78;1.42;;;;;;;;;;5057657;28;20036;-90
2021/07/09 09:46:06;;;;;;;4.68;1.80;;;;;;;;;;5058108;28;20115;-94
2021/07/09 09:48:48;;;;;;;7.15;4.38;;;;;;;;;;5074959;28;20098;-90
2021/07/09 09:51:40;;;;;;;9.25;2.05;;;;;;;;;;5057354;28;20024;-91
2021/07/09 09:54:08;;;;;;;7.60;4.28;;;;;;;;;;5057488;28;20028;-93
2021/07/09 09:56:35;;;;;;;4.40;2.63;;;;;;;;;;5075279;28;20163;-92
2021/07/09 09:59:32;;;;;;;5.95;4.72;;;;;;;;;;5059483;28;20126;-87
2021/07/09 10:02:05;;;;;;;4.50;1.83;;;;;;;;;;4978404;28;20074;-92
2021/07/09 10:04:58;;;;;;;;;;;;;;;;;;;;;
2021/07/09 10:07:24;;;;;;;6.43;1.58;;;;;;;;;;4993554;28;20041;-90
2021/07/09 10:09:50;;;;;;;5.35;3.45;;;;;;;;;;4994016;28;20117;-92
2021/07/09 10:12:18;;;;;;;3.88;2.15;;;;;;;;;;4993591;28;20042;-90
2021/07/09 10:14:44;;;;;;;5.22;2.53;;;;;;;;;;4994169;28;20430;-90
2021/07/09 10:17:13;;;;;;;6.85;2.65;;;;;;;;;;4993347;28;20584;-90
2021/07/09 10:19:55;;;;;;;5.50;4.43;;;;;;;;;;4992258;28;20502;-88
2021/07/09 10:22:21;;;;;;;5.47;4.45;;;;;;;;;;5010295;28;20556;-93
2021/07/09 10:24:59;;;;;;;3.60;2.35;;;;;;;;;;5013491;28;20552;-92
2021/07/09 10:27:42;;;;;;;6.60;4.03;;;;;;;;;;5012272;28;20038;-93
2021/07/09 10:30:09;;;;;;;4.63;4.22;;;;;;;;;;5013183;28;20030;-91
2021/07/09 10:32:37;;;;;;;6.97;4.40;;;;;;;;;;4996035;28;20120;-93
2021/07/09 10:35:08;;;;;;;4.20;1.40;;;;;;;;;;5014595;28;20494;-91
2021/07/09 10:37:34;;;;;;;6.50;1.52;;;;;;;;;;5012604;28;20028;-88
2021/07/09 10:40:06;;;;;;;3.15;1.23;;;;;;;;;;5094854;28;20456;-94
2021/07/09 10:42:43;;;;;;;6.18;0.85;;;;;;;;;;5094640;28;20012;-88
2021/07/09 10:45:14;;;;;;;4.80;1.08;;;;;;;;;;5094425;28;20479;-95
2021/07/09 10:47:53;;;;;;;6.25;1.85;;;;;;;;;;5077695;28;20082;-90
2021/07/09 10:50:32;;;;;;;4.68;3.03;;;;;;;;;;5077890;28;20031;-89
2021/07/09 10:53:00;;;;;;;4.03;1.17;;;;;;;;;;5077232;28;20030;-90
2021/07/09 10:55:28;;;;;;;5.30;2.75;;;;;;;;;;5079841;28;20024;-89
2021/07/09 10:58:06;;;;;;;4.70;0.75;;;;;;;;;;5094394;28;20044;-91
2021/07/09 11:01:23;;;;;;;;;;;;;;;;;;;;;
2021/07/09 11:03:57;;;;;;;8.57;0.57;;;;;;;;;;5094526;28;20383;-88
2021/07/09 11:06:44;;;;;;;6.90;4.05;;;;;;;;;;5094635;28;20020;-88
2021/07/09 11:09:11;;;;;;;2.80;1.02;;;;;;;;;;5077189;28;20046;-88
2021/07/09 11:12:02;;;;;;;6.07;1.80;;;;;;;;;;5094239;28;20020;-90
2021/07/09 11:14:42;;;;;;;4.32;3.72;;;;;;;;;;5077192;28;20051;-89
2021/07/09 11:17:22;;;;;;;4.75;1.55;;;;;;;;;;5076611;28;20108;-88
2021/07/09 11:20:14;;;;;;;3.08;0.65;;;;;;;;;;5094421;28;20016;-87
2021/07/09 11:22:40;;;;;;;5.43;3.85;;;;;;;;;;5099857;28;20020;-88
2021/07/09 11:25:09;;;;;;;5.57;3.67;;;;;;;;;;5083580;28;20028;-92
2021/07/09 11:27:43;;;;;;;5.65;3.33;;;;;;;;;;5101570;28;20038;-88
2021/07/09 11:30:12;;;;;;;2.65;0.60;;;;;;;;;;5064312;28;20376;-90
2021/07/09 11:32:43;;;;;;;3.00;0.82;;;;;;;;;;5080797;28;20020;-88
2021/07/09 11:35:35;;;;;;;3.03;2.38;;;;;;;;;;5071977;28;20476;-88
2021/07/09 11:38:21;;;;;;;5.20;0.93;;;;;;;;;;5062742;28;20066;-86
2021/07/09 11:41:48;;;;;;;2.42;0.60;;;;;;;;;;5072858;28;20645;-86
2021/07/09 11:44:14;;;;;;;5.13;3.30;;;;;;;;;;4996025;28;20038;-86
2021/07/09 11:49:07;;;;;;;4.40;2.17;;;;;;;;;;5242750;22;20103;-87
2021/07/09 11:51:34;;;;;;;3.38;1.70;;;;;;;;;;5057269;28;20365;-84
2021/07/09 11:54:07;;;;;;;5.43;0.65;;;;;;;;;;5039797;28;20029;-88
2021/07/09 11:56:42;;;;;;;3.65;1.67;;;;;;;;;;5058554;28;20021;-87
2021/07/09 11:59:23;;;;;;;7.38;3.55;;;;;;;;;;5057944;28;20071;-86
2021/07/09 12:02:16;;;;;;;6.45;0.70;;;;;;;;;;5059478;28;20029;-85
2021/07/09 12:04:49;;;;;;;2.28;0.60;;;;;;;;;;5055155;28;20025;-86
2021/07/09 12:07:15;;;;;;;4.55;3.28;;;;;;;;;;5053235;28;20120;-85
2021/07/09 12:09:45;;;;;;;4.32;2.92;;;;;;;;;;5056480;28;20068;-86
2021/07/09 12:12:10;;;;;;;5.57;2.75;;;;;;;;;;5057441;28;20017;-86
2021/07/09 12:15:00;;;;;;;3.78;2.97;;;;;;;;;;5056795;28;20029;-88
2021/07/09 12:17:29;;;;;;;3.95;1.48;;;;;;;;;;5054571;28;20048;-89
2021/07/09 12:20:10;;;;;;;2.70;1.58;;;;;;;;;;5056934;28;20025;-88
2021/07/09 12:22:42;;;;;;;2.97;0.65;;;;;;;;;;5053862;28;20453;-87
2021/07/09 12:25:17;;;;;;;11.55;2.72;;;;;;;;;;5054498;28;20033;-89
2021/07/09 12:27:45;;;;;;;3.70;0.80;;;;;;;;;;5057073;28;20044;-86
2021/07/09 12:30:17;;;;;;;3.83;3.08;;;;;;;;;;5058104;28;20067;-85
2021/07/09 12:32:51;;;;;;;4.70;2.85;;;;;;;;;;5043234;28;20055;-85
2021/07/09 12:35:19;;;;;;;4.95;0.80;;;;;;;;;;5061250;28;20036;-86
2021/07/09 12:38:01;;;;;;;3.72;1.30;;;;;;;;;;5041658;28;20388;-84
2021/07/09 12:40:51;;;;;;;4.68;3.33;;;;;;;;;;5044312;28;20167;-86
2021/07/09 12:43:28;;;;;;;3.40;2.20;;;;;;;;;;5057380;28;20086;-86
2021/07/09 12:46:11;;;;;;;5.90;2.47;;;;;;;;;;5059039;28;20040;-85
2021/07/09 12:48:45;;;;;;;4.25;0.70;;;;;;;;;;5061278;28;20122;-84
2021/07/09 12:51:30;;;;;;;3.88;3.47;;;;;;;;;;5042927;28;20107;-86
2021/07/09 12:54:01;;;;;;;5.20;0.88;;;;;;;;;;5056121;28;20519;-90
2021/07/09 12:56:29;;;;;;;4.47;2.33;;;;;;;;;;5037674;28;20033;-91
2021/07/09 12:59:05;;;;;;;7.10;3.22;;;;;;;;;;5037515;28;20104;-93
2021/07/09 13:01:32;;;;;;;3.45;2.80;;;;;;;;;;5039985;28;20020;-88
2021/07/09 13:03:58;;;;;;;5.68;2.80;;;;;;;;;;5053235;28;20017;-88
2021/07/09 13:06:30;;;;;;;4.85;1.27;;;;;;;;;;5056517;28;20036;-87
2021/07/09 13:09:17;;;;;;;2.75;0.90;;;;;;;;;;5063227;28;20025;-87
2021/07/09 13:11:45;;;;;;;;;;;;;;;;;;5046390;28;20519;-88
2021/07/09 13:14:30;;;;;;;3.53;1.27;;;;;;;;;;5064281;28;19935;-87
2021/07/09 13:16:57;;;;;;;5.13;1.20;;;;;;;;;;5044793;28;20361;-86
2021/07/09 13:19:37;;;;;;;3.70;0.70;;;;;;;;;;5061866;28;20025;-86
2021/07/09 13:22:09;;;;;;;2.10;0.57;;;;;;;;;;5059940;28;20027;-88
2021/07/09 13:24:36;;;;;;;3.33;1.83;;;;;;;;;;5062396;28;20047;-87
2021/07/09 13:27:13;;;;;;;3.95;2.92;;;;;;;;;;5060001;28;20041;-88
2021/07/09 13:29:40;;;;;;;3.70;1.60;;;;;;;;;;5057922;28;20358;-89
2021/07/09 13:32:08;;;;;;;5.35;2.45;;;;;;;;;;5060176;28;20074;-87
2021/07/09 13:34:35;;;;;;;4.15;2.75;;;;;;;;;;5060058;28;20044;-87
2021/07/09 13:37:01;;;;;;;5.13;2.03;;;;;;;;;;5058734;28;20368;-88
2021/07/09 13:39:30;;;;;;;3.90;3.25;;;;;;;;;;5059534;28;20021;-88
2021/07/09 13:41:55;;;;;;;3.45;2.10;;;;;;;;;;5058404;28;20075;-87
2021/07/09 13:44:21;;;;;;;5.13;3.53;;;;;;;;;;5041515;28;20025;-86
2021/07/09 13:46:48;;;;;;;6.70;2.20;;;;;;;;;;5057461;28;20025;-86
2021/07/09 13:49:13;;;;;;;6.70;2.33;;;;;;;;;;5042971;28;20076;-85
2021/07/09 13:51:41;;;;;;;3.22;2.67;;;;;;;;;;5058573;28;20389;-87
2021/07/09 13:54:12;;;;;;;5.53;3.05;;;;;;;;;;5042213;28;20029;-87
2021/07/09 13:56:38;;;;;;;4.72;3.25;;;;;;;;;;5059006;28;20146;-85
2021/07/09 13:59:08;;;;;;;4.65;3.05;;;;;;;;;;5058088;28;20021;-86
2021/07/09 14:01:34;;;;;;;5.22;1.58;;;;;;;;;;5058111;28;20100;-87
2021/07/09 14:04:02;;;;;;;6.45;3.38;;;;;;;;;;5065178;28;20055;-87
2021/07/09 14:06:38;;;;;;;3.17;2.50;;;;;;;;;;5651015;22;20056;-85
2021/07/09 14:09:03;;;;;;;2.63;0.80;;;;;;;;;;5058591;28;20485;-88
2021/07/09 14:13:54;;;;;;;8.35;0.80;;;;;;;;;;5088980;22;20060;-87
2021/07/09 14:26:38;;;;;;;5.07;1.08;;;;;;;;;;5017404;28;20149;-85
2021/07/09 14:29:04;;;;;;;2.58;0.52;;;;;;;;;;4997822;28;20066;-85
2021/07/09 14:31:32;;;;;;;3.40;3.10;;;;;;;;;;5015147;28;20030;-85
2021/07/09 14:33:58;;;;;;;7.78;3.30;;;;;;;;;;5015334;28;20029;-86
2021/07/09 14:36:24;;;;;;;2.70;0.68;;;;;;;;;;5015798;28;20444;-86
2021/07/09 14:38:51;;;;;;;4.85;0.70;;;;;;;;;;5017817;28;20105;-86
2021/07/09 14:41:17;;;;;;;2.97;0.55;;;;;;;;;;5018011;28;20049;-85
2021/07/09 14:43:42;;;;;;;2.78;1.95;;;;;;;;;;4998133;28;20068;-87
2021/07/09 14:46:08;;;;;;;5.60;1.77;;;;;;;;;;5014956;28;20030;-87
2021/07/09 14:48:34;;;;;;;8.68;1.23;;;;;;;;;;5016100;28;20030;-89
2021/07/09 14:51:00;;;;;;;10.95;1.45;;;;;;;;;;5016487;28;20109;-87
2021/07/09 14:53:25;;;;;;;4.47;0.88;;;;;;;;;;5016970;28;20030;-86
2021/07/09 14:55:52;;;;;;;6.78;3.28;;;;;;;;;;5016212;28;20105;-87
2021/07/09 14:58:18;;;;;;;2.58;1.02;;;;;;;;;;5016879;28;20025;-85
2021/07/09 15:00:43;;;;;;;4.38;1.45;;;;;;;;;;5020216;28;20421;-86
2021/07/09 15:03:09;;;;;;;4.70;0.55;;;;;;;;;;5015037;28;20105;-85
2021/07/09 15:05:35;;;;;;;5.53;0.80;;;;;;;;;;4998605;28;20033;-86
2021/07/09 15:08:02;;;;;;;4.53;1.67;;;;;;;;;;4997773;28;20120;-86
2021/07/09 15:10:28;;;;;;;3.80;1.58;;;;;;;;;;5016783;28;20014;-85
2021/07/09 15:12:54;;;;;;;3.90;1.48;;;;;;;;;;5016594;28;20034;-87
2021/07/09 15:15:20;;;;;;;4.35;1.13;;;;;;;;;;5014499;28;20031;-87
2021/07/09 15:17:49;;;;;;;5.13;3.20;;;;;;;;;;4997666;28;20049;-88
2021/07/09 15:20:15;;;;;;;4.20;1.65;;;;;;;;;;5014598;28;20026;-88
2021/07/09 15:22:41;;;;;;;5.07;0.80;;;;;;;;;;4995382;28;20054;-88
2021/07/09 15:25:09;;;;;;;5.25;0.93;;;;;;;;;;4995962;28;20073;-88
2021/07/09 15:27:36;;;;;;;4.70;2.35;;;;;;;;;;4978157;28;20121;-86
2021/07/09 15:30:07;;;;;;;6.38;1.45;;;;;;;;;;4996289;28;20050;-91
2021/07/09 15:32:33;;;;;;;8.50;2.15;;;;;;;;;;4977224;28;20113;-93
2021/07/09 15:34:59;;;;;;;7.40;1.55;;;;;;;;;;4995595;28;20062;-84
2021/07/09 15:37:24;;;;;;;5.70;2.00;;;;;;;;;;4997239;28;20061;-92
2021/07/09 15:39:50;;;;;;;7.43;3.70;;;;;;;;;;4995713;28;20033;-91
2021/07/09 15:42:16;;;;;;;6.03;2.15;;;;;;;;;;4999204;28;20061;-89
2021/07/09 15:44:42;;;;;;;10.82;3.00;;;;;;;;;;5001978;28;20486;-85
2021/07/09 15:47:08;;;;;;;7.00;2.88;;;;;;;;;;4982988;28;20022;-85
2021/07/09 15:49:37;;;;;;;4.38;1.05;;;;;;;;;;4997363;28;20027;-84
2021/07/09 15:52:11;;;;;;;5.75;0.82;;;;;;;;;;4996263;28;20089;-83
2021/07/09 15:54:37;;;;;;;3.70;1.02;;;;;;;;;;4996606;28;20117;-86
2021/07/09 15:57:06;;;;;;;3.50;1.20;;;;;;;;;;5014106;28;20065;-85
2021/07/09 15:59:32;;;;;;;3.78;1.35;;;;;;;;;;5013654;28;20034;-85